Time;durP1;ratioP1;P1;durP2;ratioP2;P2;SDS_P1;SDS_P2;PMS_P1;PMS_P2;Temp;Humidity;BMP_temperature;BMP_pressure;BME280_temperature;BME280_humidity;BME280_pressure;Samples;Min_cycle;Max_cycle;Signal;HPM_P1;HPM_P2
2023/08/01 00:00:14;;;;;;;0.00;0.00;;;;;;;;;;1728104;28;20195;-65
2023/08/01 00:01:06;;;;;;;0.00;0.00;;;;;;;;;;1728439;28;20283;-64
2023/08/01 00:01:57;;;;;;;0.00;0.00;;;;;;;;;;1725783;28;20745;-64
2023/08/01 00:02:48;;;;;;;0.00;0.00;;;;;;;;;;1729421;28;20582;-64
2023/08/01 00:03:40;;;;;;;0.00;0.00;;;;;;;;;;1729973;28;20207;-64
2023/08/01 00:04:31;;;;;;;0.00;0.00;;;;;;;;;;1729803;28;20299;-64
2023/08/01 00:05:22;;;;;;;0.00;0.00;;;;;;;;;;1727156;28;20200;-64
2023/08/01 00:06:14;;;;;;;0.00;0.00;;;;;;;;;;1726265;28;21012;-64
2023/08/01 00:07:05;;;;;;;0.00;0.00;;;;;;;;;;1728496;28;20301;-64
2023/08/01 00:07:56;;;;;;;0.00;0.00;;;;;;;;;;1730446;28;20322;-65
2023/08/01 00:08:48;;;;;;;0.00;0.00;;;;;;;;;;1729757;28;20232;-64
2023/08/01 00:09:39;;;;;;;0.00;0.00;;;;;;;;;;1730824;28;20390;-64
2023/08/01 00:10:30;;;;;;;0.00;0.00;;;;;;;;;;1728810;28;20650;-64
2023/08/01 00:11:24;;;;;;;0.00;0.00;;;;;;;;;;1730341;28;20718;-64
2023/08/01 00:12:15;;;;;;;0.00;0.00;;;;;;;;;;1727755;28;20297;-63
2023/08/01 00:13:06;;;;;;;0.00;0.00;;;;;;;;;;1728417;28;20203;-64
2023/08/01 00:13:58;;;;;;;0.00;0.00;;;;;;;;;;1729062;28;20647;-63
2023/08/01 00:14:49;;;;;;;0.00;0.00;;;;;;;;;;1730764;28;20242;-63
2023/08/01 00:15:40;;;;;;;0.00;0.00;;;;;;;;;;1725989;28;20231;-63
2023/08/01 00:16:33;;;;;;;0.00;0.00;;;;;;;;;;1727518;28;20204;-64
2023/08/01 00:17:24;;;;;;;0.00;0.00;;;;;;;;;;1727641;28;20204;-64
2023/08/01 00:18:15;;;;;;;0.00;0.00;;;;;;;;;;1727382;28;20295;-64
2023/08/01 00:19:07;;;;;;;0.00;0.00;;;;;;;;;;1726489;28;20228;-63
2023/08/01 00:19:58;;;;;;;0.00;0.00;;;;;;;;;;1728328;28;20596;-63
2023/08/01 00:20:49;;;;;;;0.00;0.00;;;;;;;;;;1724573;28;20258;-63
2023/08/01 00:21:41;;;;;;;0.00;0.00;;;;;;;;;;1728410;28;20590;-63
2023/08/01 00:22:32;;;;;;;0.00;0.00;;;;;;;;;;1727796;28;20287;-63
2023/08/01 00:23:23;;;;;;;0.00;0.00;;;;;;;;;;1726257;28;20243;-63
2023/08/01 00:24:15;;;;;;;0.00;0.00;;;;;;;;;;1727851;28;20203;-65
2023/08/01 00:25:07;;;;;;;0.00;0.00;;;;;;;;;;1730808;28;20293;-63
2023/08/01 00:25:58;;;;;;;0.00;0.00;;;;;;;;;;1723511;28;20230;-63
2023/08/01 00:26:54;;;;;;;0.00;0.00;;;;;;;;;;1729300;28;20203;-63
2023/08/01 00:27:46;;;;;;;0.00;0.00;;;;;;;;;;1728801;28;20795;-63
2023/08/01 00:28:38;;;;;;;0.00;0.00;;;;;;;;;;1731215;28;20246;-64
2023/08/01 00:29:30;;;;;;;0.00;0.00;;;;;;;;;;1724989;28;20350;-64
2023/08/01 00:30:21;;;;;;;0.00;0.00;;;;;;;;;;1728787;28;20204;-64
2023/08/01 00:31:13;;;;;;;0.00;0.00;;;;;;;;;;1725801;28;20208;-64
2023/08/01 00:32:04;;;;;;;0.00;0.00;;;;;;;;;;1728406;28;20330;-64
2023/08/01 00:32:55;;;;;;;0.00;0.00;;;;;;;;;;1730004;28;20199;-64
2023/08/01 00:33:47;;;;;;;0.00;0.00;;;;;;;;;;1729669;28;20211;-64
2023/08/01 00:34:38;;;;;;;0.00;0.00;;;;;;;;;;1730349;28;20207;-63
2023/08/01 00:35:30;;;;;;;0.00;0.00;;;;;;;;;;1729045;28;20270;-64
2023/08/01 00:36:21;;;;;;;0.00;0.00;;;;;;;;;;1728360;28;20278;-64
2023/08/01 00:37:13;;;;;;;0.00;0.00;;;;;;;;;;1727902;28;20291;-64
2023/08/01 00:38:05;;;;;;;0.00;0.00;;;;;;;;;;1728873;28;20203;-64
2023/08/01 00:38:56;;;;;;;0.00;0.00;;;;;;;;;;1725423;28;20311;-64
2023/08/01 00:39:47;;;;;;;0.00;0.00;;;;;;;;;;1730750;28;20203;-64
2023/08/01 00:40:39;;;;;;;0.00;0.00;;;;;;;;;;1727022;28;20698;-63
2023/08/01 00:41:30;;;;;;;0.00;0.00;;;;;;;;;;1730550;28;20299;-64
2023/08/01 00:42:22;;;;;;;0.00;0.00;;;;;;;;;;1727639;28;20745;-64
2023/08/01 00:43:14;;;;;;;0.00;0.00;;;;;;;;;;1726887;28;20208;-64
2023/08/01 00:44:05;;;;;;;0.00;0.00;;;;;;;;;;1728086;28;20738;-64
2023/08/01 00:44:56;;;;;;;0.00;0.00;;;;;;;;;;1729232;28;20208;-64
2023/08/01 00:45:48;;;;;;;0.00;0.00;;;;;;;;;;1724846;28;20358;-64
2023/08/01 00:46:39;;;;;;;0.00;0.00;;;;;;;;;;1725314;28;20200;-62
2023/08/01 00:47:30;;;;;;;0.00;0.00;;;;;;;;;;1727903;28;20203;-64
2023/08/01 00:48:22;;;;;;;0.00;0.00;;;;;;;;;;1726305;28;20916;-64
2023/08/01 00:49:14;;;;;;;0.00;0.00;;;;;;;;;;1727421;28;20745;-66
2023/08/01 00:50:07;;;;;;;0.00;0.00;;;;;;;;;;1730816;28;20207;-66
2023/08/01 00:50:58;;;;;;;0.00;0.00;;;;;;;;;;1725054;28;20270;-66
2023/08/01 00:51:50;;;;;;;0.00;0.00;;;;;;;;;;1729279;28;20224;-65
2023/08/01 00:52:42;;;;;;;0.00;0.00;;;;;;;;;;1727194;28;20263;-63
2023/08/01 00:53:33;;;;;;;0.00;0.00;;;;;;;;;;1731000;28;20203;-63
2023/08/01 00:54:25;;;;;;;0.00;0.00;;;;;;;;;;1725895;28;20719;-63
2023/08/01 00:55:16;;;;;;;0.00;0.00;;;;;;;;;;1727373;28;20277;-64
2023/08/01 00:56:07;;;;;;;0.00;0.00;;;;;;;;;;1725566;28;20315;-64
2023/08/01 00:56:59;;;;;;;0.00;0.00;;;;;;;;;;1729435;28;20680;-64
2023/08/01 00:57:52;;;;;;;0.00;0.00;;;;;;;;;;1729147;28;20927;-63
2023/08/01 00:58:44;;;;;;;0.00;0.00;;;;;;;;;;1724863;28;20212;-63
2023/08/01 00:59:35;;;;;;;0.00;0.00;;;;;;;;;;1731903;28;20837;-63
2023/08/01 01:00:26;;;;;;;0.00;0.00;;;;;;;;;;1729967;28;20211;-64
2023/08/01 01:01:19;;;;;;;0.00;0.00;;;;;;;;;;1730413;28;20748;-63
2023/08/01 01:02:11;;;;;;;0.00;0.00;;;;;;;;;;1729425;28;20240;-64
2023/08/01 01:03:03;;;;;;;0.00;0.00;;;;;;;;;;1730425;28;20239;-63
2023/08/01 01:03:54;;;;;;;0.00;0.00;;;;;;;;;;1726457;28;20643;-63
2023/08/01 01:04:47;;;;;;;0.00;0.00;;;;;;;;;;1727568;28;20681;-63
2023/08/01 01:05:40;;;;;;;0.00;0.00;;;;;;;;;;1727584;28;20309;-63
2023/08/01 01:06:34;;;;;;;0.00;0.00;;;;;;;;;;1728299;28;20648;-63
2023/08/01 01:07:26;;;;;;;0.00;0.00;;;;;;;;;;1728428;28;20702;-63
2023/08/01 01:08:18;;;;;;;0.00;0.00;;;;;;;;;;1728391;28;20208;-63
2023/08/01 01:09:16;;;;;;;0.00;0.00;;;;;;;;;;1727735;28;20303;-63
2023/08/01 01:10:07;;;;;;;0.00;0.00;;;;;;;;;;1732204;28;20200;-63
2023/08/01 01:10:59;;;;;;;0.00;0.00;;;;;;;;;;1724658;28;20234;-63
2023/08/01 01:11:50;;;;;;;0.00;0.00;;;;;;;;;;1730278;28;20266;-63
2023/08/01 01:12:41;;;;;;;0.00;0.00;;;;;;;;;;1729378;28;20290;-62
2023/08/01 01:13:35;;;;;;;0.00;0.00;;;;;;;;;;1731581;28;21004;-64
2023/08/01 01:14:26;;;;;;;0.00;0.00;;;;;;;;;;1726437;28;20769;-64
2023/08/01 01:15:18;;;;;;;0.00;0.00;;;;;;;;;;1728382;28;20227;-63
2023/08/01 01:16:09;;;;;;;0.00;0.00;;;;;;;;;;1726800;28;20262;-63
2023/08/01 01:17:00;;;;;;;0.00;0.00;;;;;;;;;;1731888;28;20282;-63
2023/08/01 01:17:52;;;;;;;0.00;0.00;;;;;;;;;;1727208;28;20276;-63
2023/08/01 01:18:43;;;;;;;0.00;0.00;;;;;;;;;;1725327;28;20216;-63
2023/08/01 01:19:34;;;;;;;0.00;0.00;;;;;;;;;;1731565;28;20877;-63
2023/08/01 01:20:33;;;;;;;0.00;0.00;;;;;;;;;;1727506;28;20302;-63
2023/08/01 01:21:25;;;;;;;0.00;0.00;;;;;;;;;;1728032;28;20758;-63
2023/08/01 01:22:17;;;;;;;0.00;0.00;;;;;;;;;;1728932;28;20647;-63
2023/08/01 01:23:10;;;;;;;0.00;0.00;;;;;;;;;;1729194;28;20208;-63
2023/08/01 01:24:02;;;;;;;0.00;0.00;;;;;;;;;;1726826;28;20219;-63
2023/08/01 01:24:56;;;;;;;0.00;0.00;;;;;;;;;;1732311;28;20207;-63
2023/08/01 01:25:48;;;;;;;0.00;0.00;;;;;;;;;;1725336;28;20271;-63
2023/08/01 01:26:40;;;;;;;0.00;0.00;;;;;;;;;;1725992;28;20215;-63
2023/08/01 01:27:32;;;;;;;0.00;0.00;;;;;;;;;;1727854;28;20196;-63
2023/08/01 01:28:24;;;;;;;0.00;0.00;;;;;;;;;;1726505;28;20778;-63
2023/08/01 01:29:16;;;;;;;0.00;0.00;;;;;;;;;;1728523;28;20196;-63
2023/08/01 01:30:08;;;;;;;0.00;0.00;;;;;;;;;;1732347;28;20602;-65
2023/08/01 01:31:01;;;;;;;0.00;0.00;;;;;;;;;;1723947;28;20361;-66
2023/08/01 01:31:53;;;;;;;0.00;0.00;;;;;;;;;;1731003;28;20255;-65
2023/08/01 01:32:45;;;;;;;0.00;0.00;;;;;;;;;;1727689;28;20208;-66
2023/08/01 01:33:36;;;;;;;0.00;0.00;;;;;;;;;;1732504;28;20207;-65
2023/08/01 01:34:28;;;;;;;0.00;0.00;;;;;;;;;;1731340;28;20211;-65
2023/08/01 01:35:19;;;;;;;0.00;0.00;;;;;;;;;;1730438;28;20239;-63
2023/08/01 01:36:10;;;;;;;0.00;0.00;;;;;;;;;;1729342;28;20679;-65
2023/08/01 01:37:04;;;;;;;0.00;0.00;;;;;;;;;;1732089;28;20321;-63
2023/08/01 01:37:55;;;;;;;0.00;0.00;;;;;;;;;;1727504;28;20235;-64
2023/08/01 01:38:47;;;;;;;0.00;0.00;;;;;;;;;;1732037;28;20219;-64
2023/08/01 01:39:38;;;;;;;0.00;0.00;;;;;;;;;;1726867;28;20640;-64
2023/08/01 01:40:30;;;;;;;0.00;0.00;;;;;;;;;;1727282;28;20215;-63
2023/08/01 01:41:22;;;;;;;0.00;0.00;;;;;;;;;;1729333;28;20307;-63
2023/08/01 01:42:13;;;;;;;0.00;0.00;;;;;;;;;;1729018;28;20250;-63
2023/08/01 01:43:05;;;;;;;0.00;0.00;;;;;;;;;;1730394;28;20285;-64
2023/08/01 01:43:56;;;;;;;0.00;0.00;;;;;;;;;;1730246;28;20231;-63
2023/08/01 01:44:47;;;;;;;0.00;0.00;;;;;;;;;;1728708;28;20295;-64
2023/08/01 01:45:39;;;;;;;0.00;0.00;;;;;;;;;;1727635;28;20240;-64
2023/08/01 01:46:30;;;;;;;0.00;0.00;;;;;;;;;;1729106;28;20236;-64
2023/08/01 01:47:21;;;;;;;0.00;0.00;;;;;;;;;;1727572;28;20239;-63
2023/08/01 01:48:13;;;;;;;0.00;0.00;;;;;;;;;;1729168;28;20208;-64
2023/08/01 01:49:04;;;;;;;0.00;0.00;;;;;;;;;;1726055;28;20303;-64
2023/08/01 01:49:55;;;;;;;0.00;0.00;;;;;;;;;;1729166;28;20203;-64
2023/08/01 01:50:47;;;;;;;0.00;0.00;;;;;;;;;;1726470;28;20235;-63
2023/08/01 01:51:38;;;;;;;0.00;0.00;;;;;;;;;;1728435;28;20266;-64
2023/08/01 01:52:32;;;;;;;0.00;0.00;;;;;;;;;;1727033;28;20327;-64
2023/08/01 01:53:23;;;;;;;0.00;0.00;;;;;;;;;;1726088;28;20596;-64
2023/08/01 01:54:15;;;;;;;0.00;0.00;;;;;;;;;;1725506;28;20200;-64
2023/08/01 01:55:07;;;;;;;0.00;0.00;;;;;;;;;;1730317;28;20659;-63
2023/08/01 01:55:58;;;;;;;0.00;0.00;;;;;;;;;;1725523;28;20231;-63
2023/08/01 01:56:50;;;;;;;0.00;0.00;;;;;;;;;;1730594;28;20709;-62
2023/08/01 01:57:41;;;;;;;0.00;0.00;;;;;;;;;;1727569;28;20306;-64
2023/08/01 01:58:32;;;;;;;0.00;0.00;;;;;;;;;;1731532;28;20586;-63
2023/08/01 01:59:24;;;;;;;0.00;0.00;;;;;;;;;;1726918;28;20228;-63
2023/08/01 02:00:16;;;;;;;0.00;0.00;;;;;;;;;;1728873;28;20295;-63
2023/08/01 02:01:07;;;;;;;0.00;0.00;;;;;;;;;;1726890;28;20358;-63
2023/08/01 02:01:59;;;;;;;0.00;0.00;;;;;;;;;;1730218;28;20228;-63
2023/08/01 02:02:50;;;;;;;0.00;0.00;;;;;;;;;;1729947;28;20722;-63
2023/08/01 02:03:42;;;;;;;0.00;0.00;;;;;;;;;;1725397;28;20231;-64
2023/08/01 02:04:33;;;;;;;0.00;0.00;;;;;;;;;;1731639;28;20310;-63
2023/08/01 02:05:24;;;;;;;0.00;0.00;;;;;;;;;;1727240;28;20294;-63
2023/08/01 02:06:16;;;;;;;0.00;0.00;;;;;;;;;;1728433;28;20200;-64
2023/08/01 02:07:08;;;;;;;0.00;0.00;;;;;;;;;;1731377;28;20254;-64
2023/08/01 02:08:00;;;;;;;0.00;0.00;;;;;;;;;;1730149;28;20227;-63
2023/08/01 02:08:52;;;;;;;0.00;0.00;;;;;;;;;;1725356;28;20216;-63
2023/08/01 02:09:43;;;;;;;0.00;0.00;;;;;;;;;;1727156;28;20291;-63
2023/08/01 02:10:34;;;;;;;0.00;0.00;;;;;;;;;;1726179;28;20244;-63
2023/08/01 02:11:27;;;;;;;0.00;0.00;;;;;;;;;;1728674;28;20672;-63
2023/08/01 02:12:18;;;;;;;0.00;0.00;;;;;;;;;;1728799;28;20239;-63
2023/08/01 02:13:09;;;;;;;0.00;0.00;;;;;;;;;;1728963;28;20658;-63
2023/08/01 02:14:02;;;;;;;0.00;0.00;;;;;;;;;;1729716;28;20207;-63
2023/08/01 02:14:53;;;;;;;0.00;0.00;;;;;;;;;;1728622;28;20732;-63
2023/08/01 02:15:45;;;;;;;0.00;0.00;;;;;;;;;;1726958;28;20309;-62
2023/08/01 02:16:37;;;;;;;0.00;0.00;;;;;;;;;;1728220;28;20239;-63
2023/08/01 02:17:29;;;;;;;0.00;0.00;;;;;;;;;;1727410;28;20307;-63
2023/08/01 02:18:20;;;;;;;0.00;0.00;;;;;;;;;;1727685;28;20303;-63
2023/08/01 02:19:12;;;;;;;0.00;0.00;;;;;;;;;;1724928;28;20275;-63
2023/08/01 02:20:03;;;;;;;0.00;0.00;;;;;;;;;;1729487;28;20323;-63
2023/08/01 02:20:54;;;;;;;0.00;0.00;;;;;;;;;;1726599;28;20759;-63
2023/08/01 02:21:46;;;;;;;0.00;0.00;;;;;;;;;;1730011;28;20223;-63
2023/08/01 02:22:37;;;;;;;0.00;0.00;;;;;;;;;;1727448;28;20251;-63
2023/08/01 02:23:31;;;;;;;0.00;0.00;;;;;;;;;;1725372;28;20636;-63
2023/08/01 02:24:22;;;;;;;0.00;0.00;;;;;;;;;;1726599;28;20208;-63
2023/08/01 02:25:14;;;;;;;0.00;0.00;;;;;;;;;;1729279;28;20269;-63
2023/08/01 02:26:07;;;;;;;0.00;0.00;;;;;;;;;;1728764;28;20262;-63
2023/08/01 02:26:58;;;;;;;0.00;0.00;;;;;;;;;;1731535;28;20208;-63
2023/08/01 02:27:50;;;;;;;0.00;0.00;;;;;;;;;;1726002;28;20204;-63
2023/08/01 02:28:41;;;;;;;0.00;0.00;;;;;;;;;;1725255;28;20270;-63
2023/08/01 02:29:33;;;;;;;0.00;0.00;;;;;;;;;;1726073;28;20651;-63
2023/08/01 02:30:24;;;;;;;0.00;0.00;;;;;;;;;;1727168;28;20210;-63
2023/08/01 02:31:16;;;;;;;0.00;0.00;;;;;;;;;;1728126;28;20215;-61
2023/08/01 02:32:08;;;;;;;0.00;0.00;;;;;;;;;;1731218;28;20294;-63
2023/08/01 02:32:59;;;;;;;0.00;0.00;;;;;;;;;;1730008;28;20600;-63
2023/08/01 02:33:51;;;;;;;0.00;0.00;;;;;;;;;;1725076;28;20626;-63
2023/08/01 02:34:42;;;;;;;0.00;0.00;;;;;;;;;;1731678;28;20641;-64
2023/08/01 02:35:34;;;;;;;0.00;0.00;;;;;;;;;;1726671;28;20232;-64
2023/08/01 02:36:25;;;;;;;0.00;0.00;;;;;;;;;;1730690;28;20207;-63
2023/08/01 02:37:16;;;;;;;0.00;0.00;;;;;;;;;;1728849;28;20212;-63
2023/08/01 02:38:08;;;;;;;0.00;0.00;;;;;;;;;;1728992;28;20718;-63
2023/08/01 02:39:00;;;;;;;0.00;0.00;;;;;;;;;;1726234;28;20239;-63
2023/08/01 02:39:51;;;;;;;0.00;0.00;;;;;;;;;;1731519;28;20453;-63
2023/08/01 02:40:43;;;;;;;0.00;0.00;;;;;;;;;;1726666;28;20236;-63
2023/08/01 02:41:35;;;;;;;0.00;0.00;;;;;;;;;;1728625;28;20243;-63
2023/08/01 02:42:26;;;;;;;0.00;0.00;;;;;;;;;;1728205;28;20226;-64
2023/08/01 02:43:18;;;;;;;0.00;0.00;;;;;;;;;;1728416;28;20214;-64
2023/08/01 02:44:09;;;;;;;0.00;0.00;;;;;;;;;;1728286;28;20247;-63
2023/08/01 02:45:00;;;;;;;0.00;0.00;;;;;;;;;;1728801;28;20278;-63
2023/08/01 02:45:52;;;;;;;0.00;0.00;;;;;;;;;;1726023;28;20231;-63
2023/08/01 02:46:43;;;;;;;0.00;0.00;;;;;;;;;;1726105;28;20271;-63
2023/08/01 02:47:34;;;;;;;0.00;0.00;;;;;;;;;;1727952;28;20670;-63
2023/08/01 02:48:26;;;;;;;0.00;0.00;;;;;;;;;;1726602;28;20679;-63
2023/08/01 02:49:18;;;;;;;0.00;0.00;;;;;;;;;;1724224;28;20247;-63
2023/08/01 02:50:09;;;;;;;0.00;0.00;;;;;;;;;;1730322;28;20204;-63
2023/08/01 02:51:01;;;;;;;0.00;0.00;;;;;;;;;;1725069;28;20641;-63
2023/08/01 02:51:52;;;;;;;0.00;0.00;;;;;;;;;;1730273;28;20258;-63
2023/08/01 02:52:43;;;;;;;0.00;0.00;;;;;;;;;;1726712;28;20288;-63
2023/08/01 02:53:35;;;;;;;0.00;0.00;;;;;;;;;;1724790;28;20204;-63
2023/08/01 02:54:27;;;;;;;0.00;0.00;;;;;;;;;;1729664;28;20574;-63
2023/08/01 02:55:18;;;;;;;0.00;0.00;;;;;;;;;;1727798;28;20793;-63
2023/08/01 02:56:10;;;;;;;0.00;0.00;;;;;;;;;;1727503;28;20266;-63
2023/08/01 02:57:01;;;;;;;0.00;0.00;;;;;;;;;;1729350;28;20231;-62
2023/08/01 02:57:52;;;;;;;0.00;0.00;;;;;;;;;;1729879;28;20242;-63
2023/08/01 02:58:44;;;;;;;0.00;0.00;;;;;;;;;;1725035;28;20286;-63
2023/08/01 02:59:35;;;;;;;0.00;0.00;;;;;;;;;;1730610;28;20250;-63
2023/08/01 03:00:27;;;;;;;0.00;0.00;;;;;;;;;;1729498;28;20208;-63
2023/08/01 03:01:18;;;;;;;0.00;0.00;;;;;;;;;;1725371;28;20247;-62
2023/08/01 03:02:10;;;;;;;0.00;0.00;;;;;;;;;;1728636;28;20299;-63
2023/08/01 03:03:03;;;;;;;0.00;0.00;;;;;;;;;;1731281;28;20231;-63
2023/08/01 03:03:54;;;;;;;0.00;0.00;;;;;;;;;;1730186;28;20239;-63
2023/08/01 03:04:45;;;;;;;0.00;0.00;;;;;;;;;;1727155;28;20299;-63
2023/08/01 03:05:37;;;;;;;0.00;0.00;;;;;;;;;;1726227;28;20240;-64
2023/08/01 03:06:28;;;;;;;0.00;0.00;;;;;;;;;;1728769;28;20331;-64
2023/08/01 03:07:20;;;;;;;0.00;0.00;;;;;;;;;;1728375;28;20645;-63
2023/08/01 03:08:11;;;;;;;0.00;0.00;;;;;;;;;;1728406;28;20250;-63
2023/08/01 03:09:02;;;;;;;0.00;0.00;;;;;;;;;;1724339;28;20291;-63
2023/08/01 03:09:55;;;;;;;0.00;0.00;;;;;;;;;;1727657;28;20206;-63
2023/08/01 03:10:46;;;;;;;0.00;0.00;;;;;;;;;;1726678;28;20235;-63
2023/08/01 03:11:39;;;;;;;0.00;0.00;;;;;;;;;;1726911;28;20274;-63
2023/08/01 03:12:30;;;;;;;0.00;0.00;;;;;;;;;;1727484;28;20310;-63
2023/08/01 03:13:22;;;;;;;0.00;0.00;;;;;;;;;;1731246;28;20285;-64
2023/08/01 03:14:13;;;;;;;0.00;0.00;;;;;;;;;;1725153;28;20754;-64
2023/08/01 03:15:05;;;;;;;0.00;0.00;;;;;;;;;;1729670;28;20210;-63
2023/08/01 03:15:57;;;;;;;0.00;0.00;;;;;;;;;;1726052;28;20235;-63
2023/08/01 03:16:48;;;;;;;0.00;0.00;;;;;;;;;;1726500;28;20278;-63
2023/08/01 03:17:39;;;;;;;0.00;0.00;;;;;;;;;;1726861;28;20320;-63
2023/08/01 03:18:31;;;;;;;0.00;0.00;;;;;;;;;;1729931;28;20659;-63
2023/08/01 03:19:24;;;;;;;0.00;0.00;;;;;;;;;;1728740;28;20306;-63
2023/08/01 03:20:16;;;;;;;0.00;0.00;;;;;;;;;;1730059;28;20223;-63
2023/08/01 03:21:07;;;;;;;0.00;0.00;;;;;;;;;;1727278;28;20260;-63
2023/08/01 03:21:59;;;;;;;0.00;0.00;;;;;;;;;;1724662;28;20707;-63
2023/08/01 03:22:50;;;;;;;0.00;0.00;;;;;;;;;;1729817;28;20300;-62
2023/08/01 03:23:42;;;;;;;0.00;0.00;;;;;;;;;;1726483;28;20200;-63
2023/08/01 03:24:33;;;;;;;0.00;0.00;;;;;;;;;;1724962;28;20244;-63
2023/08/01 03:25:26;;;;;;;0.00;0.00;;;;;;;;;;1727895;28;20204;-63
2023/08/01 03:26:18;;;;;;;0.00;0.00;;;;;;;;;;1726932;28;20218;-63
2023/08/01 03:27:09;;;;;;;0.00;0.00;;;;;;;;;;1726979;28;20215;-63
2023/08/01 03:28:00;;;;;;;0.00;0.00;;;;;;;;;;1726207;28;20331;-63
2023/08/01 03:28:52;;;;;;;0.00;0.00;;;;;;;;;;1728094;28;20204;-62
2023/08/01 03:29:43;;;;;;;0.00;0.00;;;;;;;;;;1730350;28;20327;-64
2023/08/01 03:30:35;;;;;;;0.00;0.00;;;;;;;;;;1727704;28;20236;-63
2023/08/01 03:31:26;;;;;;;0.00;0.00;;;;;;;;;;1726561;28;20210;-63
2023/08/01 03:32:18;;;;;;;0.00;0.00;;;;;;;;;;1726509;28;20202;-63
2023/08/01 03:33:09;;;;;;;0.00;0.00;;;;;;;;;;1727142;28;20698;-63
2023/08/01 03:34:01;;;;;;;0.00;0.00;;;;;;;;;;1729679;28;20218;-63
2023/08/01 03:34:52;;;;;;;0.00;0.00;;;;;;;;;;1727272;28;20247;-63
2023/08/01 03:35:44;;;;;;;0.00;0.00;;;;;;;;;;1727375;28;20269;-64
2023/08/01 03:36:36;;;;;;;0.00;0.00;;;;;;;;;;1726897;28;20216;-63
2023/08/01 03:37:27;;;;;;;0.00;0.00;;;;;;;;;;1726636;28;20690;-63
2023/08/01 03:38:19;;;;;;;0.00;0.00;;;;;;;;;;1728738;28;20264;-63
2023/08/01 03:39:11;;;;;;;0.00;0.00;;;;;;;;;;1725296;28;20254;-63
2023/08/01 03:40:03;;;;;;;0.00;0.00;;;;;;;;;;1728983;28;20717;-63
2023/08/01 03:40:55;;;;;;;0.00;0.00;;;;;;;;;;1725586;28;20248;-63
2023/08/01 03:41:46;;;;;;;0.00;0.00;;;;;;;;;;1730977;28;20599;-63
2023/08/01 03:42:38;;;;;;;0.00;0.00;;;;;;;;;;1758664;23;20221;-60
2023/08/01 03:43:29;;;;;;;0.00;0.00;;;;;;;;;;1751200;28;20247;-59
2023/08/01 03:44:20;;;;;;;0.00;0.00;;;;;;;;;;1744778;28;20284;-60
2023/08/01 03:45:12;;;;;;;0.00;0.00;;;;;;;;;;1749664;28;20204;-60
2023/08/01 03:46:03;;;;;;;0.00;0.00;;;;;;;;;;1747480;28;20230;-60
2023/08/01 03:46:54;;;;;;;0.00;0.00;;;;;;;;;;1750585;28;20619;-60
2023/08/01 03:47:46;;;;;;;0.00;0.00;;;;;;;;;;1749969;28;20209;-60
2023/08/01 03:48:38;;;;;;;0.00;0.00;;;;;;;;;;1750080;28;20214;-60
2023/08/01 03:49:29;;;;;;;0.00;0.00;;;;;;;;;;1745061;28;20268;-59
2023/08/01 03:50:21;;;;;;;0.00;0.00;;;;;;;;;;1747518;28;20287;-59
2023/08/01 03:51:15;;;;;;;0.00;0.00;;;;;;;;;;1746203;28;20241;-60
2023/08/01 03:52:07;;;;;;;0.00;0.00;;;;;;;;;;1744621;28;20201;-60
2023/08/01 03:52:58;;;;;;;0.00;0.00;;;;;;;;;;1741071;28;20302;-60
2023/08/01 03:53:50;;;;;;;0.00;0.00;;;;;;;;;;1745020;28;20202;-60
2023/08/01 03:54:41;;;;;;;0.00;0.00;;;;;;;;;;1739661;28;20696;-61
2023/08/01 03:55:32;;;;;;;0.00;0.00;;;;;;;;;;1742298;28;20230;-60
2023/08/01 03:56:26;;;;;;;0.00;0.00;;;;;;;;;;1740244;28;20654;-60
2023/08/01 03:57:17;;;;;;;0.00;0.00;;;;;;;;;;1738698;28;20199;-60
2023/08/01 03:58:09;;;;;;;0.00;0.00;;;;;;;;;;1744621;28;20537;-61
2023/08/01 03:59:00;;;;;;;0.00;0.00;;;;;;;;;;1743698;28;20709;-60
2023/08/01 03:59:52;;;;;;;0.00;0.00;;;;;;;;;;1745096;28;20264;-60
2023/08/01 04:00:44;;;;;;;0.00;0.00;;;;;;;;;;1740195;28;20230;-60
2023/08/01 04:01:35;;;;;;;0.00;0.00;;;;;;;;;;1739855;28;20264;-60
2023/08/01 04:02:27;;;;;;;0.00;0.00;;;;;;;;;;1741070;28;20210;-60
2023/08/01 04:03:18;;;;;;;0.00;0.00;;;;;;;;;;1744594;28;20297;-60
2023/08/01 04:04:10;;;;;;;0.00;0.00;;;;;;;;;;1743726;28;20198;-60
2023/08/01 04:05:02;;;;;;;0.00;0.00;;;;;;;;;;1744867;28;20284;-60
2023/08/01 04:05:53;;;;;;;0.00;0.00;;;;;;;;;;1739806;28;20739;-60
2023/08/01 04:06:45;;;;;;;0.00;0.00;;;;;;;;;;1745318;28;20202;-61
2023/08/01 04:07:37;;;;;;;0.00;0.00;;;;;;;;;;1742968;28;20297;-60
2023/08/01 04:08:29;;;;;;;0.00;0.00;;;;;;;;;;1744833;28;20289;-60
2023/08/01 04:09:20;;;;;;;0.00;0.00;;;;;;;;;;1739309;28;20256;-60
2023/08/01 04:10:12;;;;;;;0.00;0.00;;;;;;;;;;1742653;28;20290;-60
2023/08/01 04:11:03;;;;;;;0.00;0.00;;;;;;;;;;1740246;28;20270;-60
2023/08/01 04:11:56;;;;;;;0.00;0.00;;;;;;;;;;1733477;28;20634;-59
2023/08/01 04:12:47;;;;;;;0.00;0.00;;;;;;;;;;1738135;28;20326;-60
2023/08/01 04:13:38;;;;;;;0.00;0.00;;;;;;;;;;1743977;28;20244;-61
2023/08/01 04:14:30;;;;;;;0.00;0.00;;;;;;;;;;1740147;28;20217;-61
2023/08/01 04:15:21;;;;;;;0.00;0.00;;;;;;;;;;1742186;28;20670;-60
2023/08/01 04:16:13;;;;;;;0.00;0.00;;;;;;;;;;1740871;28;20199;-61
2023/08/01 04:17:04;;;;;;;0.00;0.00;;;;;;;;;;1744403;28;20233;-60
2023/08/01 04:17:56;;;;;;;0.00;0.00;;;;;;;;;;1743850;28;20209;-60
2023/08/01 04:18:48;;;;;;;0.00;0.00;;;;;;;;;;1744960;28;20419;-61
2023/08/01 04:19:40;;;;;;;0.00;0.00;;;;;;;;;;1740828;28;20230;-61
2023/08/01 04:20:31;;;;;;;0.00;0.00;;;;;;;;;;1739547;28;20330;-60
2023/08/01 04:21:22;;;;;;;0.00;0.00;;;;;;;;;;1742358;28;20213;-61
2023/08/01 04:22:14;;;;;;;0.00;0.00;;;;;;;;;;1739013;28;20194;-60
2023/08/01 04:23:05;;;;;;;0.00;0.00;;;;;;;;;;1744627;28;20241;-61
2023/08/01 04:23:57;;;;;;;0.00;0.00;;;;;;;;;;1743491;28;20716;-60
2023/08/01 04:24:48;;;;;;;0.00;0.00;;;;;;;;;;1744940;28;20301;-61
2023/08/01 04:25:41;;;;;;;0.00;0.00;;;;;;;;;;1739854;28;20693;-60
2023/08/01 04:26:33;;;;;;;0.00;0.00;;;;;;;;;;1744460;28;20252;-60
2023/08/01 04:27:25;;;;;;;0.00;0.00;;;;;;;;;;1742862;28;20688;-60
2023/08/01 04:28:16;;;;;;;0.00;0.00;;;;;;;;;;1744440;28;20326;-60
2023/08/01 04:29:08;;;;;;;0.00;0.00;;;;;;;;;;1742940;28;20202;-61
2023/08/01 04:29:59;;;;;;;0.00;0.00;;;;;;;;;;1742057;28;20750;-60
2023/08/01 04:30:50;;;;;;;0.00;0.00;;;;;;;;;;1739718;28;20303;-60
2023/08/01 04:31:42;;;;;;;0.00;0.00;;;;;;;;;;1744737;28;20620;-60
2023/08/01 04:32:33;;;;;;;0.00;0.00;;;;;;;;;;1740813;28;20269;-60
2023/08/01 04:33:25;;;;;;;0.00;0.00;;;;;;;;;;1742387;28;20653;-61
2023/08/01 04:34:16;;;;;;;0.00;0.00;;;;;;;;;;1741158;28;20759;-60
2023/08/01 04:35:09;;;;;;;0.00;0.00;;;;;;;;;;1743116;28;20393;-60
2023/08/01 04:36:00;;;;;;;0.00;0.00;;;;;;;;;;1738894;28;20753;-61
2023/08/01 04:36:51;;;;;;;0.00;0.00;;;;;;;;;;1738879;28;20206;-60
2023/08/01 04:37:43;;;;;;;0.00;0.00;;;;;;;;;;1742973;28;20221;-61
2023/08/01 04:38:34;;;;;;;0.00;0.00;;;;;;;;;;1743715;28;20301;-60
2023/08/01 04:39:25;;;;;;;0.00;0.00;;;;;;;;;;1739340;28;20670;-61
2023/08/01 04:40:17;;;;;;;0.00;0.00;;;;;;;;;;1742068;28;20226;-61
2023/08/01 04:41:08;;;;;;;0.00;0.00;;;;;;;;;;1739789;28;20233;-61
2023/08/01 04:42:00;;;;;;;0.00;0.00;;;;;;;;;;1738085;28;20198;-61
2023/08/01 04:42:53;;;;;;;0.00;0.00;;;;;;;;;;1736789;28;20781;-61
2023/08/01 04:43:45;;;;;;;0.00;0.00;;;;;;;;;;1744118;28;20217;-60
2023/08/01 04:44:36;;;;;;;0.00;0.00;;;;;;;;;;1739647;28;20250;-60
2023/08/01 04:45:27;;;;;;;0.00;0.00;;;;;;;;;;1742414;28;20297;-61
2023/08/01 04:46:19;;;;;;;0.00;0.00;;;;;;;;;;1741096;28;20210;-60
2023/08/01 04:47:11;;;;;;;0.00;0.00;;;;;;;;;;1744125;28;20642;-60
2023/08/01 04:48:03;;;;;;;0.00;0.00;;;;;;;;;;1739272;28;20199;-60
2023/08/01 04:48:54;;;;;;;0.00;0.00;;;;;;;;;;1741801;28;20676;-61
2023/08/01 04:49:46;;;;;;;0.00;0.00;;;;;;;;;;1744461;28;20248;-61
2023/08/01 04:50:37;;;;;;;0.00;0.00;;;;;;;;;;1741183;28;20265;-60
2023/08/01 04:51:29;;;;;;;0.00;0.00;;;;;;;;;;1738955;28;20708;-60
2023/08/01 04:52:20;;;;;;;0.00;0.00;;;;;;;;;;1739791;28;20297;-61
2023/08/01 04:53:11;;;;;;;0.00;0.00;;;;;;;;;;1740683;28;20225;-61
2023/08/01 04:54:03;;;;;;;0.00;0.00;;;;;;;;;;1741655;28;20345;-61
2023/08/01 04:54:54;;;;;;;0.00;0.00;;;;;;;;;;1741564;28;20292;-61
2023/08/01 04:55:46;;;;;;;0.00;0.00;;;;;;;;;;1740106;28;20226;-61
2023/08/01 04:56:37;;;;;;;0.00;0.00;;;;;;;;;;1743269;28;20297;-61
2023/08/01 04:57:29;;;;;;;0.00;0.00;;;;;;;;;;1743298;28;20208;-62
2023/08/01 04:58:21;;;;;;;0.00;0.00;;;;;;;;;;1744495;28;20234;-61
2023/08/01 04:59:14;;;;;;;0.00;0.00;;;;;;;;;;1742391;28;20573;-62
2023/08/01 05:00:05;;;;;;;0.00;0.00;;;;;;;;;;1742207;28;20244;-61
2023/08/01 05:00:56;;;;;;;0.00;0.00;;;;;;;;;;1738396;28;20642;-61
2023/08/01 05:01:48;;;;;;;0.00;0.00;;;;;;;;;;1744499;28;20206;-62
2023/08/01 05:02:39;;;;;;;0.00;0.00;;;;;;;;;;1739977;28;20318;-62
2023/08/01 05:03:31;;;;;;;0.00;0.00;;;;;;;;;;1743019;28;20437;-61
2023/08/01 05:04:22;;;;;;;0.00;0.00;;;;;;;;;;1740361;28;20301;-59
2023/08/01 05:05:15;;;;;;;0.00;0.00;;;;;;;;;;1740623;28;20198;-60
2023/08/01 05:06:07;;;;;;;0.00;0.00;;;;;;;;;;1739501;28;20190;-59
2023/08/01 05:06:58;;;;;;;0.00;0.00;;;;;;;;;;1743526;28;20286;-59
2023/08/01 05:07:50;;;;;;;0.00;0.00;;;;;;;;;;1738978;28;20581;-59
2023/08/01 05:08:42;;;;;;;0.00;0.00;;;;;;;;;;1744449;28;20313;-59
2023/08/01 05:09:34;;;;;;;0.00;0.00;;;;;;;;;;1739056;28;20199;-59